createdAt,value
2019-02-16T00:00:18.929Z,6.11
2019-02-16T00:01:23.189Z,6.13
2019-02-16T00:02:27.411Z,6.15
2019-02-16T00:03:31.639Z,6.16
2019-02-16T00:04:35.847Z,6.18
2019-02-16T00:05:40.065Z,6.19
2019-02-16T00:06:44.292Z,6.19
2019-02-16T00:07:48.495Z,6.20
2019-02-16T00:08:52.764Z,6.21
2019-02-16T00:09:56.988Z,6.22
2019-02-16T00:11:01.258Z,6.22
2019-02-16T00:12:05.358Z,6.22
2019-02-16T00:13:09.667Z,6.22
2019-02-16T00:14:13.889Z,6.23
2019-02-16T00:15:18.117Z,6.23
2019-02-16T00:16:22.317Z,6.22
2019-02-16T00:17:26.540Z,6.22
2019-02-16T00:18:30.686Z,6.23
2019-02-16T00:19:34.920Z,6.23
2019-02-16T00:20:39.170Z,6.23
2019-02-16T00:21:43.401Z,6.23
2019-02-16T00:22:47.685Z,6.24
2019-02-16T00:23:51.842Z,6.23
2019-02-16T00:24:56.031Z,6.23
2019-02-16T00:26:00.200Z,6.23
2019-02-16T00:27:04.425Z,6.22
2019-02-16T00:28:08.574Z,6.22
2019-02-16T00:29:12.828Z,6.21
2019-02-16T00:30:17.058Z,6.20
2019-02-16T00:31:21.335Z,6.18
2019-02-16T00:32:25.555Z,6.17
2019-02-16T00:33:29.751Z,6.16
2019-02-16T00:34:33.878Z,6.15
2019-02-16T00:35:38.181Z,6.14
2019-02-16T00:36:42.352Z,6.13
2019-02-16T00:37:46.576Z,6.11
2019-02-16T00:38:50.682Z,6.10
2019-02-16T00:39:54.956Z,6.10
2019-02-16T00:40:59.174Z,6.09
2019-02-16T00:42:03.367Z,6.10
2019-02-16T00:43:07.480Z,6.09
2019-02-16T00:44:11.734Z,6.08
2019-02-16T00:45:15.959Z,6.08
2019-02-16T00:46:20.188Z,6.09
2019-02-16T00:47:24.427Z,6.09
2019-02-16T00:48:28.527Z,6.09
2019-02-16T00:49:32.667Z,6.09
2019-02-16T00:50:37.033Z,6.09
2019-02-16T00:51:41.227Z,6.08
2019-02-16T00:52:45.411Z,6.07
2019-02-16T00:53:49.537Z,6.07
2019-02-16T00:54:53.788Z,6.06
2019-02-16T00:55:57.918Z,6.06
2019-02-16T00:57:02.204Z,6.04
2019-02-16T00:58:06.407Z,6.04
2019-02-16T00:59:10.635Z,6.04
2019-02-16T01:00:14.837Z,6.03
2019-02-16T01:01:19.080Z,6.04
2019-02-16T01:02:23.270Z,6.05
2019-02-16T01:03:27.514Z,6.05
2019-02-16T01:04:31.707Z,6.04
2019-02-16T01:05:35.888Z,6.03
2019-02-16T01:06:40.108Z,6.03
2019-02-16T01:07:44.305Z,6.03
2019-02-16T01:08:48.517Z,6.03
2019-02-16T01:09:52.609Z,6.02
2019-02-16T01:10:56.903Z,6.01
2019-02-16T01:12:01.114Z,6.01
2019-02-16T01:13:05.315Z,6.00
2019-02-16T01:14:09.522Z,5.99
2019-02-16T01:15:13.752Z,5.98
2019-02-16T01:16:17.953Z,5.98
2019-02-16T01:17:22.148Z,5.97
2019-02-16T01:18:26.381Z,5.98
2019-02-16T01:19:30.560Z,5.98
2019-02-16T01:20:34.777Z,5.98
2019-02-16T01:21:39.057Z,5.99
2019-02-16T01:22:43.163Z,5.98
2019-02-16T01:23:47.328Z,5.99
2019-02-16T01:24:51.601Z,5.99
2019-02-16T01:25:55.811Z,5.98
2019-02-16T01:27:00.053Z,5.98
2019-02-16T01:28:04.270Z,5.97
2019-02-16T01:29:08.484Z,5.95
2019-02-16T01:30:12.692Z,5.93
2019-02-16T01:31:16.914Z,5.91
2019-02-16T01:32:21.142Z,5.89
2019-02-16T01:33:25.269Z,5.87
2019-02-16T01:34:29.548Z,5.85
2019-02-16T01:35:33.761Z,5.83
2019-02-16T01:36:38.092Z,5.81
2019-02-16T01:37:42.224Z,5.77
2019-02-16T01:38:46.473Z,5.75
2019-02-16T01:39:50.661Z,5.74
2019-02-16T01:40:54.848Z,5.72
2019-02-16T01:41:59.080Z,5.70
2019-02-16T01:43:03.319Z,5.67
2019-02-16T01:44:07.573Z,5.64
2019-02-16T01:45:11.752Z,5.62
2019-02-16T01:46:15.858Z,5.60
2019-02-16T01:47:20.055Z,5.58
2019-02-16T01:48:24.316Z,5.57
2019-02-16T01:49:28.418Z,5.56
2019-02-16T01:50:32.692Z,5.54
2019-02-16T01:51:36.927Z,5.52
2019-02-16T01:52:41.088Z,5.51
2019-02-16T01:53:45.277Z,5.49
2019-02-16T01:54:49.363Z,5.48
2019-02-16T01:55:53.625Z,5.46
2019-02-16T01:56:57.828Z,5.42
2019-02-16T01:58:02.046Z,5.39
2019-02-16T01:59:06.234Z,5.37
2019-02-16T02:00:10.455Z,5.34
2019-02-16T02:01:14.681Z,5.33
2019-02-16T02:02:18.900Z,5.33
2019-02-16T02:03:23.064Z,5.32
2019-02-16T02:04:27.260Z,5.32
2019-02-16T02:05:31.464Z,5.31
2019-02-16T02:06:35.668Z,5.30
2019-02-16T02:07:39.889Z,5.30
2019-02-16T02:08:43.982Z,5.28
2019-02-16T02:09:48.149Z,5.26
2019-02-16T02:10:52.388Z,5.24
2019-02-16T02:11:56.602Z,5.23
2019-02-16T02:13:00.805Z,5.22
2019-02-16T02:14:05.036Z,5.21
2019-02-16T02:15:09.153Z,5.18
2019-02-16T02:16:13.413Z,5.14
2019-02-16T02:17:17.669Z,5.08
2019-02-16T02:18:21.825Z,5.02
2019-02-16T02:19:26.030Z,4.91
2019-02-16T02:20:30.195Z,4.83
2019-02-16T02:21:40.986Z,4.76
2019-02-16T02:22:38.580Z,4.72
2019-02-16T02:23:42.714Z,4.71
2019-02-16T02:24:47.052Z,4.69
2019-02-16T02:25:51.077Z,4.66
2019-02-16T02:26:55.307Z,4.63
2019-02-16T02:27:59.493Z,4.59
2019-02-16T02:29:03.572Z,4.54
2019-02-16T02:30:07.828Z,4.49
2019-02-16T02:31:12.038Z,4.44
2019-02-16T02:32:16.371Z,4.39
2019-02-16T02:33:20.413Z,4.35
2019-02-16T02:34:24.552Z,4.31
2019-02-16T02:35:28.686Z,4.30
2019-02-16T02:36:32.937Z,4.32
2019-02-16T02:37:37.032Z,4.36
2019-02-16T02:38:41.167Z,4.41
2019-02-16T02:39:45.422Z,4.47
2019-02-16T02:40:49.639Z,4.52
2019-02-16T02:41:53.724Z,4.58
2019-02-16T02:42:58.007Z,4.65
2019-02-16T02:44:02.039Z,4.71
2019-02-16T02:45:06.334Z,4.77
2019-02-16T02:46:10.549Z,4.83
2019-02-16T02:47:14.676Z,4.88
2019-02-16T02:48:18.934Z,4.94
2019-02-16T02:49:23.128Z,4.99
2019-02-16T02:50:27.434Z,5.04
2019-02-16T02:51:31.576Z,5.08
2019-02-16T02:52:35.800Z,5.12
2019-02-16T02:53:39.995Z,5.17
2019-02-16T02:54:44.095Z,5.21
2019-02-16T02:55:48.250Z,5.24
2019-02-16T02:56:52.515Z,5.27
2019-02-16T02:57:56.736Z,5.30
2019-02-16T02:59:00.938Z,5.31
2019-02-16T03:00:05.173Z,5.33
2019-02-16T03:01:09.363Z,5.35
2019-02-16T03:02:13.567Z,5.36
2019-02-16T03:03:17.763Z,5.37
2019-02-16T03:04:21.961Z,5.37
2019-02-16T03:05:26.043Z,5.38
2019-02-16T03:06:30.319Z,5.39
2019-02-16T03:07:34.556Z,5.40
2019-02-16T03:08:38.771Z,5.41
2019-02-16T03:09:42.983Z,5.42
2019-02-16T03:10:47.180Z,5.42
2019-02-16T03:11:51.399Z,5.43
2019-02-16T03:12:55.605Z,5.44
2019-02-16T03:13:59.862Z,5.44
2019-02-16T03:15:04.016Z,5.44
2019-02-16T03:16:08.212Z,5.45
2019-02-16T03:17:12.443Z,5.45
2019-02-16T03:18:16.671Z,5.46
2019-02-16T03:19:20.872Z,5.46
2019-02-16T03:20:25.092Z,5.46
2019-02-16T03:21:29.295Z,5.45
2019-02-16T03:22:33.487Z,5.45
2019-02-16T03:23:37.724Z,5.44
2019-02-16T03:24:41.789Z,5.43
2019-02-16T03:25:46.032Z,5.43
2019-02-16T03:26:50.164Z,5.43
2019-02-16T03:27:54.428Z,5.44
2019-02-16T03:28:58.690Z,5.44
2019-02-16T03:30:02.869Z,5.44
2019-02-16T03:31:07.066Z,5.45
2019-02-16T03:32:11.295Z,5.46
2019-02-16T03:33:15.487Z,5.46
2019-02-16T03:34:19.709Z,5.46
2019-02-16T03:35:23.929Z,5.46
2019-02-16T03:36:28.049Z,5.46
2019-02-16T03:37:32.292Z,5.46
2019-02-16T03:38:36.514Z,5.46
2019-02-16T03:39:40.837Z,5.45
2019-02-16T03:40:44.903Z,5.44
2019-02-16T03:41:49.191Z,5.43
2019-02-16T03:42:53.410Z,5.41
2019-02-16T03:43:57.535Z,5.40
2019-02-16T03:45:01.802Z,5.40
2019-02-16T03:46:05.959Z,5.39
2019-02-16T03:47:10.213Z,5.39
2019-02-16T03:48:14.444Z,5.38
2019-02-16T03:49:18.560Z,5.36
2019-02-16T03:50:22.747Z,5.35
2019-02-16T03:51:26.949Z,5.33
2019-02-16T03:52:31.152Z,5.30
2019-02-16T03:53:35.308Z,5.29
2019-02-16T03:54:39.437Z,5.28
2019-02-16T03:55:43.722Z,5.26
2019-02-16T03:56:47.930Z,5.24
2019-02-16T03:57:52.174Z,5.23
2019-02-16T03:58:56.516Z,5.22
2019-02-16T04:00:00.605Z,5.22
2019-02-16T04:01:04.703Z,5.21
2019-02-16T04:02:08.963Z,5.21
2019-02-16T04:03:14.044Z,5.22
2019-02-16T04:04:17.794Z,5.22
2019-02-16T04:05:21.966Z,5.23
2019-02-16T04:06:26.228Z,5.23
2019-02-16T04:07:30.425Z,5.24
2019-02-16T04:08:34.634Z,5.24
2019-02-16T04:09:38.835Z,5.25
2019-02-16T04:10:42.949Z,5.26
2019-02-16T04:11:47.173Z,5.27
2019-02-16T04:12:51.381Z,5.27
2019-02-16T04:13:55.576Z,5.27
2019-02-16T04:14:59.785Z,5.26
2019-02-16T04:16:03.911Z,5.26
2019-02-16T04:17:08.168Z,5.25
2019-02-16T04:18:12.487Z,5.25
2019-02-16T04:19:16.667Z,5.25
2019-02-16T04:20:20.900Z,5.26
2019-02-16T04:21:25.060Z,5.26
2019-02-16T04:22:29.275Z,5.27
2019-02-16T04:23:33.489Z,5.27
2019-02-16T04:24:37.709Z,5.28
2019-02-16T04:25:41.809Z,5.29
2019-02-16T04:26:46.061Z,5.29
2019-02-16T04:27:50.247Z,5.30
2019-02-16T04:28:54.457Z,5.31
2019-02-16T04:29:58.688Z,5.32
2019-02-16T04:31:02.905Z,5.33
2019-02-16T04:32:07.123Z,5.33
2019-02-16T04:33:11.235Z,5.34
2019-02-16T04:34:15.397Z,5.35
2019-02-16T04:35:19.687Z,5.36
2019-02-16T04:36:23.891Z,5.36
2019-02-16T04:37:28.119Z,5.36
2019-02-16T04:38:32.291Z,5.35
2019-02-16T04:39:36.607Z,5.34
2019-02-16T04:40:40.607Z,5.34
2019-02-16T04:41:44.906Z,5.33
2019-02-16T04:42:49.063Z,5.33
2019-02-16T04:43:53.193Z,5.32
2019-02-16T04:44:57.431Z,5.32
2019-02-16T04:46:01.656Z,5.31
2019-02-16T04:47:05.839Z,5.31
2019-02-16T04:48:10.024Z,5.31
2019-02-16T04:49:14.255Z,5.31
2019-02-16T04:50:18.485Z,5.31
2019-02-16T04:51:22.677Z,5.32
2019-02-16T04:52:34.268Z,5.32
2019-02-16T04:53:31.090Z,5.31
2019-02-16T04:54:35.290Z,5.31
2019-02-16T04:55:39.532Z,5.30
2019-02-16T04:56:43.755Z,5.30
2019-02-16T04:57:47.980Z,5.29
2019-02-16T04:58:52.148Z,5.27
2019-02-16T04:59:56.355Z,5.27
2019-02-16T05:01:00.584Z,5.26
2019-02-16T05:02:04.789Z,5.25
2019-02-16T05:03:09.007Z,5.24
2019-02-16T05:04:13.137Z,5.23
2019-02-16T05:05:17.437Z,5.20
2019-02-16T05:06:21.613Z,5.19
2019-02-16T05:07:25.799Z,5.19
2019-02-16T05:08:29.964Z,5.18
2019-02-16T05:09:34.164Z,5.18
2019-02-16T05:10:38.307Z,5.17
2019-02-16T05:11:42.576Z,5.17
2019-02-16T05:12:47.140Z,5.16
2019-02-16T05:13:51.025Z,5.15
2019-02-16T05:14:55.148Z,5.15
2019-02-16T05:15:59.392Z,5.14
2019-02-16T05:17:03.623Z,5.13
2019-02-16T05:18:07.711Z,5.13
2019-02-16T05:19:11.942Z,5.12
2019-02-16T05:20:15.967Z,5.12
2019-02-16T05:21:20.277Z,5.11
2019-02-16T05:22:24.479Z,5.11
2019-02-16T05:23:28.676Z,5.10
2019-02-16T05:24:32.892Z,5.10
2019-02-16T05:25:37.143Z,5.11
2019-02-16T05:26:41.291Z,5.12
2019-02-16T05:27:45.488Z,5.12
2019-02-16T05:28:49.704Z,5.12
2019-02-16T05:29:53.916Z,5.11
2019-02-16T05:30:58.152Z,5.10
2019-02-16T05:32:02.344Z,5.09
2019-02-16T05:33:06.549Z,5.09
2019-02-16T05:34:10.774Z,5.08
2019-02-16T05:35:15.026Z,5.06
2019-02-16T05:36:19.204Z,5.03
2019-02-16T05:37:23.398Z,5.00
2019-02-16T05:38:27.585Z,4.99
2019-02-16T05:39:31.806Z,4.98
2019-02-16T05:40:35.950Z,4.97
2019-02-16T05:41:40.166Z,4.97
2019-02-16T05:42:44.379Z,4.98
2019-02-16T05:43:48.473Z,4.99
2019-02-16T05:44:52.735Z,4.99
2019-02-16T05:45:56.928Z,4.96
2019-02-16T05:47:01.087Z,4.93
2019-02-16T05:48:05.309Z,4.91
2019-02-16T05:49:09.519Z,4.90
2019-02-16T05:50:13.712Z,4.90
2019-02-16T05:51:17.940Z,4.90
2019-02-16T05:52:22.123Z,4.90
2019-02-16T05:53:26.232Z,4.91
2019-02-16T05:54:30.501Z,4.92
2019-02-16T05:55:34.715Z,4.93
2019-02-16T05:56:38.939Z,4.95
2019-02-16T05:57:43.130Z,4.97
2019-02-16T05:58:47.332Z,4.99
2019-02-16T05:59:51.523Z,5.00
2019-02-16T06:00:55.771Z,5.00
2019-02-16T06:01:59.991Z,5.02
2019-02-16T06:03:04.163Z,5.02
2019-02-16T06:04:08.355Z,5.03
2019-02-16T06:05:15.561Z,5.04
2019-02-16T06:06:18.766Z,5.06
2019-02-16T06:07:23.000Z,5.07
2019-02-16T06:08:27.186Z,5.09
2019-02-16T06:09:31.402Z,5.09
2019-02-16T06:10:35.511Z,5.11
2019-02-16T06:11:39.787Z,5.13
2019-02-16T06:12:43.867Z,5.13
2019-02-16T06:13:48.112Z,5.14
2019-02-16T06:14:52.298Z,5.15
2019-02-16T06:15:56.537Z,5.16
2019-02-16T06:17:00.738Z,5.17
2019-02-16T06:18:04.908Z,5.17
2019-02-16T06:19:09.097Z,5.18
2019-02-16T06:20:13.311Z,5.18
2019-02-16T06:21:17.501Z,5.18
2019-02-16T06:22:21.649Z,5.18
2019-02-16T06:23:25.878Z,5.19
2019-02-16T06:24:30.062Z,5.19
2019-02-16T06:25:34.260Z,5.20
2019-02-16T06:26:38.389Z,5.21
2019-02-16T06:27:42.650Z,5.22
2019-02-16T06:28:46.833Z,5.23
2019-02-16T06:29:51.037Z,5.25
2019-02-16T06:30:55.232Z,5.26
2019-02-16T06:31:59.492Z,5.27
2019-02-16T06:33:03.699Z,5.28
2019-02-16T06:34:07.881Z,5.28
2019-02-16T06:35:11.905Z,5.28
2019-02-16T06:36:16.227Z,5.28
2019-02-16T06:37:20.443Z,5.29
2019-02-16T06:38:24.627Z,5.30
2019-02-16T06:39:28.738Z,5.30
2019-02-16T06:40:32.876Z,5.31
2019-02-16T06:41:37.063Z,5.32
2019-02-16T06:42:41.314Z,5.32
2019-02-16T06:43:45.614Z,5.33
2019-02-16T06:44:49.746Z,5.33
2019-02-16T06:45:53.939Z,5.33
2019-02-16T06:46:58.194Z,5.34
2019-02-16T06:48:02.309Z,5.34
2019-02-16T06:49:06.565Z,5.34
2019-02-16T06:50:10.758Z,5.36
2019-02-16T06:51:15.053Z,5.38
2019-02-16T06:52:19.193Z,5.39
2019-02-16T06:53:23.384Z,5.40
2019-02-16T06:54:27.502Z,5.41
2019-02-16T06:55:31.762Z,5.42
2019-02-16T06:56:35.930Z,5.43
2019-02-16T06:57:40.155Z,5.43
2019-02-16T06:58:44.268Z,5.44
2019-02-16T06:59:48.536Z,5.45
2019-02-16T07:00:52.757Z,5.46
2019-02-16T07:01:57.005Z,5.46
2019-02-16T07:03:01.337Z,5.47
2019-02-16T07:04:05.557Z,5.47
2019-02-16T07:05:09.741Z,5.47
2019-02-16T07:06:13.922Z,5.48
2019-02-16T07:07:18.397Z,5.48
2019-02-16T07:08:22.599Z,5.47
2019-02-16T07:09:26.774Z,5.47
2019-02-16T07:10:30.969Z,5.46
2019-02-16T07:11:35.197Z,5.46
2019-02-16T07:12:39.434Z,5.46
2019-02-16T07:13:43.610Z,5.46
2019-02-16T07:14:47.836Z,5.46
2019-02-16T07:15:52.071Z,5.47
2019-02-16T07:16:56.286Z,5.47
2019-02-16T07:18:00.580Z,5.47
2019-02-16T07:19:04.842Z,5.47
2019-02-16T07:20:09.023Z,5.48
2019-02-16T07:21:13.239Z,5.48
2019-02-16T07:22:17.458Z,5.48
2019-02-16T07:23:22.795Z,5.49
2019-02-16T07:24:25.878Z,5.50
2019-02-16T07:25:30.096Z,5.53
2019-02-16T07:26:34.243Z,5.55
2019-02-16T07:27:38.426Z,5.57
2019-02-16T07:28:42.649Z,5.58
2019-02-16T07:29:46.896Z,5.60
2019-02-16T07:30:51.070Z,5.61
2019-02-16T07:31:55.200Z,5.63
2019-02-16T07:32:59.487Z,5.64
2019-02-16T07:34:03.695Z,5.65
2019-02-16T07:35:07.826Z,5.66
2019-02-16T07:36:12.209Z,5.66
2019-02-16T07:37:16.271Z,5.66
2019-02-16T07:38:20.533Z,5.67
2019-02-16T07:39:24.627Z,5.67
2019-02-16T07:40:28.894Z,5.68
2019-02-16T07:41:33.035Z,5.68
2019-02-16T07:42:37.267Z,5.68
2019-02-16T07:43:41.473Z,5.69
2019-02-16T07:44:45.643Z,5.69
2019-02-16T07:45:49.887Z,5.70
2019-02-16T07:46:57.072Z,5.70
2019-02-16T07:48:00.513Z,5.70
2019-02-16T07:49:04.625Z,5.70
2019-02-16T07:50:08.831Z,5.70
2019-02-16T07:51:13.036Z,5.71
2019-02-16T07:52:17.318Z,5.72
2019-02-16T07:53:21.485Z,5.73
2019-02-16T07:54:25.700Z,5.74
2019-02-16T07:55:29.947Z,5.75
2019-02-16T07:56:34.156Z,5.76
2019-02-16T07:57:38.329Z,5.78
2019-02-16T07:58:42.537Z,5.78
2019-02-16T07:59:46.784Z,5.80
2019-02-16T08:00:50.975Z,5.81
2019-02-16T08:01:56.749Z,5.83
2019-02-16T08:03:00.459Z,5.84
2019-02-16T08:04:04.359Z,5.86
2019-02-16T08:05:08.520Z,5.87
2019-02-16T08:06:12.739Z,5.88
2019-02-16T08:07:17.004Z,5.90
2019-02-16T08:08:21.233Z,5.91
2019-02-16T08:09:25.485Z,5.92
2019-02-16T08:10:29.738Z,5.93
2019-02-16T08:11:34.008Z,5.94
2019-02-16T08:12:38.123Z,5.95
2019-02-16T08:13:42.413Z,5.97
2019-02-16T08:14:46.664Z,5.99
2019-02-16T08:15:50.834Z,6.01
2019-02-16T08:16:55.050Z,6.03
2019-02-16T08:17:59.380Z,6.05
2019-02-16T08:19:03.537Z,6.06
2019-02-16T08:20:07.748Z,6.07
2019-02-16T08:21:12.004Z,6.10
2019-02-16T08:22:16.243Z,6.12
2019-02-16T08:23:20.414Z,6.14
2019-02-16T08:24:24.641Z,6.17
2019-02-16T08:25:28.835Z,6.20
2019-02-16T08:26:33.065Z,6.22
2019-02-16T08:27:37.245Z,6.25
2019-02-16T08:28:41.429Z,6.28
2019-02-16T08:29:45.686Z,6.31
2019-02-16T08:30:49.906Z,6.34
2019-02-16T08:31:54.108Z,6.37
2019-02-16T08:32:58.312Z,6.40
2019-02-16T08:34:02.457Z,6.44
2019-02-16T08:35:06.620Z,6.47
2019-02-16T08:36:10.887Z,6.50
2019-02-16T08:37:15.097Z,6.54
2019-02-16T08:38:19.306Z,6.58
2019-02-16T08:39:23.518Z,6.61
2019-02-16T08:40:27.757Z,6.64
2019-02-16T08:41:31.948Z,6.68
2019-02-16T08:42:36.168Z,6.71
2019-02-16T08:43:40.369Z,6.74
2019-02-16T08:44:44.604Z,6.77
2019-02-16T08:45:48.809Z,6.80
2019-02-16T08:46:53.031Z,6.82
2019-02-16T08:47:57.167Z,6.85
2019-02-16T08:49:01.338Z,6.87
2019-02-16T08:50:05.648Z,6.89
2019-02-16T08:51:09.956Z,6.91
2019-02-16T08:52:14.162Z,6.93
2019-02-16T08:53:18.471Z,6.95
2019-02-16T08:54:22.637Z,6.97
2019-02-16T08:55:26.885Z,6.99
2019-02-16T08:56:31.134Z,7.02
2019-02-16T08:57:35.353Z,7.04
2019-02-16T08:58:39.590Z,7.07
2019-02-16T08:59:43.885Z,7.10
2019-02-16T09:00:48.124Z,7.13
2019-02-16T09:01:52.375Z,7.15
2019-02-16T09:02:56.582Z,7.18
2019-02-16T09:04:00.795Z,7.20
2019-02-16T09:05:05.035Z,7.23
2019-02-16T09:06:09.173Z,7.25
2019-02-16T09:07:13.475Z,7.28
2019-02-16T09:08:17.721Z,7.31
2019-02-16T09:09:21.925Z,7.34
2019-02-16T09:10:26.042Z,7.37
2019-02-16T09:11:30.334Z,7.40
2019-02-16T09:12:34.447Z,7.43
2019-02-16T09:13:38.738Z,7.45
2019-02-16T09:14:42.775Z,7.49
2019-02-16T09:15:47.119Z,7.51
2019-02-16T09:16:51.338Z,7.54
2019-02-16T09:17:55.592Z,7.57
2019-02-16T09:18:59.822Z,7.59
2019-02-16T09:20:04.058Z,7.62
2019-02-16T09:21:14.375Z,7.65
2019-02-16T09:22:13.559Z,7.67
2019-02-16T09:23:16.667Z,7.70
2019-02-16T09:24:21.105Z,7.73
2019-02-16T09:25:25.640Z,7.76
2019-02-16T09:26:30.025Z,7.78
2019-02-16T09:27:34.225Z,7.81
2019-02-16T09:28:38.480Z,7.83
2019-02-16T09:29:42.673Z,7.86
2019-02-16T09:30:46.823Z,7.90
2019-02-16T09:31:51.066Z,7.93
2019-02-16T09:32:55.220Z,7.96
2019-02-16T09:33:59.646Z,7.99
2019-02-16T09:35:04.887Z,8.03
2019-02-16T09:36:08.699Z,8.06
2019-02-16T09:37:12.928Z,8.09
2019-02-16T09:38:17.180Z,8.12
2019-02-16T09:39:21.436Z,8.15
2019-02-16T09:40:25.490Z,8.18
2019-02-16T09:41:29.780Z,8.22
2019-02-16T09:42:34.017Z,8.25
2019-02-16T09:43:38.257Z,8.28
2019-02-16T09:44:43.420Z,8.32
2019-02-16T09:45:47.364Z,8.35
2019-02-16T09:46:51.539Z,8.39
2019-02-16T09:47:55.801Z,8.42
2019-02-16T09:48:59.903Z,8.45
2019-02-16T09:50:04.137Z,8.48
2019-02-16T09:51:08.472Z,8.50
2019-02-16T09:52:12.602Z,8.53
2019-02-16T09:53:16.896Z,8.55
2019-02-16T09:54:21.331Z,8.58
2019-02-16T09:55:25.467Z,8.61
2019-02-16T09:56:29.732Z,8.65
2019-02-16T09:57:34.010Z,8.67
2019-02-16T09:58:38.317Z,8.71
2019-02-16T09:59:42.558Z,8.74
2019-02-16T10:00:46.811Z,8.77
2019-02-16T10:01:51.160Z,8.79
2019-02-16T10:02:55.408Z,8.81
2019-02-16T10:03:59.720Z,8.84
2019-02-16T10:05:04.008Z,8.87
2019-02-16T10:06:08.369Z,8.89
2019-02-16T10:07:12.758Z,8.92
2019-02-16T10:08:17.097Z,8.95
2019-02-16T10:09:21.310Z,8.98
2019-02-16T10:10:25.572Z,9.01
2019-02-16T10:11:29.830Z,9.03
2019-02-16T10:12:34.100Z,9.06
2019-02-16T10:13:38.341Z,9.09
2019-02-16T10:14:42.605Z,9.12
2019-02-16T10:15:46.870Z,9.15
2019-02-16T10:16:51.184Z,9.18
2019-02-16T10:17:55.471Z,9.21
2019-02-16T10:18:59.781Z,9.24
2019-02-16T10:20:04.060Z,9.27
2019-02-16T10:21:08.298Z,9.29
2019-02-16T10:22:12.590Z,9.32
2019-02-16T10:23:16.939Z,9.35
2019-02-16T10:24:21.232Z,9.39
2019-02-16T10:25:25.558Z,9.43
2019-02-16T10:26:29.803Z,9.46
2019-02-16T10:27:34.084Z,9.50
2019-02-16T10:28:38.344Z,9.53
2019-02-16T10:29:42.530Z,9.55
2019-02-16T10:30:46.842Z,9.59
2019-02-16T10:31:51.100Z,9.62
2019-02-16T10:32:55.380Z,9.66
2019-02-16T10:33:59.624Z,9.69
2019-02-16T10:35:03.897Z,9.72
2019-02-16T10:36:08.163Z,9.75
2019-02-16T10:37:12.427Z,9.78
2019-02-16T10:38:16.715Z,9.81
2019-02-16T10:39:21.007Z,9.85
2019-02-16T10:40:25.290Z,9.89
2019-02-16T10:41:29.566Z,9.92
2019-02-16T10:42:33.888Z,9.96
2019-02-16T10:43:38.160Z,10.00
2019-02-16T10:44:42.400Z,10.04
2019-02-16T10:45:46.611Z,10.07
2019-02-16T10:46:50.922Z,10.09
2019-02-16T10:47:55.243Z,10.12
2019-02-16T10:48:59.632Z,10.16
2019-02-16T10:50:03.914Z,10.19
2019-02-16T10:51:08.319Z,10.23
2019-02-16T10:52:12.576Z,10.27
2019-02-16T10:53:16.812Z,10.30
2019-02-16T10:54:27.074Z,10.34
2019-02-16T10:55:25.471Z,10.37
2019-02-16T10:56:29.679Z,10.41
2019-02-16T10:57:34.012Z,10.44
2019-02-16T10:58:38.258Z,10.47
2019-02-16T10:59:42.572Z,10.51
2019-02-16T11:00:46.840Z,10.55
2019-02-16T11:01:51.117Z,10.58
2019-02-16T11:02:55.441Z,10.62
2019-02-16T11:03:59.772Z,10.65
2019-02-16T11:05:04.022Z,10.68
2019-02-16T11:06:08.320Z,10.72
2019-02-16T11:07:12.603Z,10.76
2019-02-16T11:08:16.912Z,10.79
2019-02-16T11:09:21.189Z,10.83
2019-02-16T11:10:25.477Z,10.87
2019-02-16T11:11:29.771Z,10.91
2019-02-16T11:12:34.073Z,10.95
2019-02-16T11:13:38.362Z,10.99
2019-02-16T11:14:42.674Z,11.03
2019-02-16T11:15:46.997Z,11.09
2019-02-16T11:16:51.197Z,11.13
2019-02-16T11:17:55.969Z,11.18
2019-02-16T11:18:59.874Z,11.22
2019-02-16T11:20:04.099Z,11.28
2019-02-16T11:21:08.431Z,11.33
2019-02-16T11:22:12.726Z,11.37
2019-02-16T11:23:16.985Z,11.41
2019-02-16T11:24:21.275Z,11.46
2019-02-16T11:25:25.582Z,11.51
2019-02-16T11:26:29.868Z,11.56
2019-02-16T11:27:34.039Z,11.62
2019-02-16T11:28:38.378Z,11.68
2019-02-16T11:29:42.576Z,11.75
2019-02-16T11:30:46.795Z,11.83
2019-02-16T11:31:51.017Z,11.92
2019-02-16T11:32:55.312Z,12.00
2019-02-16T11:33:59.624Z,12.09
2019-02-16T11:35:03.900Z,12.18
2019-02-16T11:36:08.118Z,12.25
2019-02-16T11:37:12.467Z,12.32
2019-02-16T11:38:16.740Z,12.38
2019-02-16T11:39:21.041Z,12.44
2019-02-16T11:40:25.253Z,12.50
2019-02-16T11:41:29.579Z,12.57
2019-02-16T11:42:33.808Z,12.64
2019-02-16T11:43:38.206Z,12.71
2019-02-16T11:44:42.385Z,12.78
2019-02-16T11:45:46.748Z,12.85
2019-02-16T11:46:51.073Z,12.93
2019-02-16T11:47:55.270Z,12.99
2019-02-16T11:48:59.634Z,13.04
2019-02-16T11:50:03.964Z,13.12
2019-02-16T11:51:08.264Z,13.19
2019-02-16T11:52:12.548Z,13.25
2019-02-16T11:53:16.747Z,13.32
2019-02-16T11:54:21.050Z,13.38
2019-02-16T11:55:25.259Z,13.46
2019-02-16T11:56:29.621Z,13.53
2019-02-16T11:57:33.834Z,13.59
2019-02-16T11:58:38.220Z,13.65
2019-02-16T11:59:42.455Z,13.71
2019-02-16T12:00:46.731Z,13.75
2019-02-16T12:01:51.031Z,13.81
2019-02-16T12:02:55.384Z,13.87
2019-02-16T12:03:59.750Z,13.89
2019-02-16T12:05:04.039Z,13.90
2019-02-16T12:06:08.362Z,13.94
2019-02-16T12:07:12.640Z,13.96
2019-02-16T12:08:16.980Z,14.01
2019-02-16T12:09:21.302Z,14.02
2019-02-16T12:10:25.587Z,14.05
2019-02-16T12:11:29.920Z,14.11
2019-02-16T12:12:34.180Z,14.17
2019-02-16T12:13:38.467Z,14.24
2019-02-16T12:14:42.793Z,14.30
2019-02-16T12:15:47.115Z,14.34
2019-02-16T12:16:51.476Z,14.29
2019-02-16T12:17:55.696Z,14.31
2019-02-16T12:18:59.980Z,14.37
2019-02-16T12:20:04.275Z,14.46
2019-02-16T12:21:08.637Z,14.54
2019-02-16T12:22:12.855Z,14.64
2019-02-16T12:23:17.131Z,14.75
2019-02-16T12:24:21.492Z,14.85
2019-02-16T12:25:25.791Z,14.92
2019-02-16T12:26:30.208Z,15.01
2019-02-16T12:27:34.439Z,15.09
2019-02-16T12:28:38.752Z,15.17
2019-02-16T12:29:43.127Z,15.24
2019-02-16T12:30:47.394Z,15.30
2019-02-16T12:31:51.706Z,15.37
2019-02-16T12:32:55.979Z,15.44
2019-02-16T12:34:00.345Z,15.50
2019-02-16T12:35:07.588Z,15.56
2019-02-16T12:36:11.038Z,15.62
2019-02-16T12:37:15.362Z,15.68
2019-02-16T12:38:19.626Z,15.72
2019-02-16T12:39:23.985Z,15.77
2019-02-16T12:40:28.343Z,15.73
2019-02-16T12:41:32.658Z,15.72
2019-02-16T12:42:36.903Z,15.76
2019-02-16T12:43:41.124Z,15.81
2019-02-16T12:44:45.429Z,15.83
2019-02-16T12:45:51.402Z,15.88
2019-02-16T12:46:54.049Z,15.96
2019-02-16T12:47:58.308Z,16.05
2019-02-16T12:49:02.716Z,16.14
2019-02-16T12:50:06.954Z,16.23
2019-02-16T12:51:11.386Z,16.32
2019-02-16T12:52:15.748Z,16.40
2019-02-16T12:53:20.116Z,16.46
2019-02-16T12:54:24.433Z,16.50
2019-02-16T12:55:28.757Z,16.55
2019-02-16T12:56:33.003Z,16.54
2019-02-16T12:57:37.298Z,16.56
2019-02-16T12:58:41.621Z,16.62
2019-02-16T12:59:45.922Z,16.67
2019-02-16T13:00:50.383Z,16.74
2019-02-16T13:01:54.638Z,16.81
2019-02-16T13:02:58.944Z,16.86
2019-02-16T13:04:03.271Z,16.90
2019-02-16T13:05:07.664Z,16.93
2019-02-16T13:06:12.029Z,16.96
2019-02-16T13:07:16.302Z,16.99
2019-02-16T13:08:20.657Z,17.01
2019-02-16T13:09:24.983Z,17.05
2019-02-16T13:10:29.383Z,17.09
2019-02-16T13:11:33.654Z,17.10
2019-02-16T13:12:37.986Z,17.14
2019-02-16T13:13:42.302Z,17.16
2019-02-16T13:14:46.676Z,17.18
2019-02-16T13:15:51.100Z,17.18
2019-02-16T13:16:55.422Z,17.18
2019-02-16T13:17:59.683Z,17.18
2019-02-16T13:19:04.146Z,17.19
2019-02-16T13:20:08.442Z,17.18
2019-02-16T13:21:12.833Z,17.17
2019-02-16T13:22:17.159Z,17.14
2019-02-16T13:23:21.528Z,17.14
2019-02-16T13:24:25.807Z,17.16
2019-02-16T13:25:30.132Z,17.20
2019-02-16T13:26:34.562Z,17.24
2019-02-16T13:27:38.802Z,17.28
2019-02-16T13:28:43.119Z,17.33
2019-02-16T13:29:47.515Z,17.35
2019-02-16T13:30:51.875Z,17.35
2019-02-16T13:31:56.198Z,17.36
2019-02-16T13:33:08.242Z,17.36
2019-02-16T13:34:04.898Z,17.34
2019-02-16T13:35:09.241Z,17.31
2019-02-16T13:36:13.639Z,17.26
2019-02-16T13:37:17.890Z,17.21
2019-02-16T13:38:22.261Z,17.16
2019-02-16T13:39:26.637Z,17.08
2019-02-16T13:40:30.947Z,17.01
2019-02-16T13:41:35.378Z,16.95
2019-02-16T13:42:39.707Z,16.87
2019-02-16T13:43:44.065Z,16.81
2019-02-16T13:44:48.437Z,16.74
2019-02-16T13:45:52.664Z,16.69
2019-02-16T13:46:56.958Z,16.66
2019-02-16T13:48:01.227Z,16.65
2019-02-16T13:49:05.555Z,16.66
2019-02-16T13:50:09.978Z,16.68
2019-02-16T13:51:14.242Z,16.70
2019-02-16T13:52:18.650Z,16.72
2019-02-16T13:53:23.008Z,16.73
2019-02-16T13:54:27.259Z,16.76
2019-02-16T13:55:33.563Z,16.75
2019-02-16T13:56:35.923Z,16.72
2019-02-16T13:57:40.300Z,16.69
2019-02-16T13:58:44.533Z,16.67
2019-02-16T13:59:48.833Z,16.65
2019-02-16T14:00:53.168Z,16.63
2019-02-16T14:01:57.460Z,16.62
2019-02-16T14:03:01.828Z,16.61
2019-02-16T14:04:06.080Z,16.60
2019-02-16T14:05:10.488Z,16.55
2019-02-16T14:06:14.738Z,16.49
2019-02-16T14:07:19.155Z,16.44
2019-02-16T14:08:23.499Z,16.39